Lady Lake, Florida
Current Conditions -  °F | °C
As of 8:53 AM on Friday 24 Oct 2014 (Local Time) from KLEE Reporting Station
Clear Clear  
Wind Chill: 64°   Ceiling: Unl
Heat Index: 64°   Visibility: 10mi
Dew Point: 53°   Wind: 9mph
Humidity: 67%   Direction: 10°N
Pressure: 30.02"   Gusts: NA
Location:  28.92°N, 81.92°W
Report Text: KLEE 241253Z 01008KT 10SM CLR 18/12 A3002 RMK AO2 SLP163 T01780117
Loading
Personal Weather Stations






























Interactive Weather Map
Tropical Storm Tracking
New forecast layout! Learn more

10-Day Weather Forecast

Advertisements
Track Severe Weather on mobile